sensor_id;sensor_type;location;lat;lon;timestamp;pressure;altitude;pressure_sealevel;temperature;humidity
36380;BME280;22411;53.016;18.632;2023-02-16T00:01:49;101539.84;;;-0.40;100.00
36380;BME280;22411;53.016;18.632;2023-02-16T00:04:26;101543.28;;;-0.45;100.00
36380;BME280;22411;53.016;18.632;2023-02-16T00:06:54;101530.53;;;-0.45;100.00
36380;BME280;22411;53.016;18.632;2023-02-16T00:09:21;101537.34;;;-0.46;100.00
36380;BME280;22411;53.016;18.632;2023-02-16T00:11:48;101523.75;;;-0.45;100.00
36380;BME280;22411;53.016;18.632;2023-02-16T00:14:35;101524.63;;;-0.47;100.00
36380;BME280;22411;53.016;18.632;2023-02-16T00:17:01;101522.06;;;-0.47;100.00
36380;BME280;22411;53.016;18.632;2023-02-16T00:21:58;101516.19;;;-0.59;100.00
36380;BME280;22411;53.016;18.632;2023-02-16T00:24:26;101520.47;;;-0.64;100.00
36380;BME280;22411;53.016;18.632;2023-02-16T00:26:52;101514.53;;;-0.63;100.00
36380;BME280;22411;53.016;18.632;2023-02-16T00:29:20;101513.72;;;-0.68;100.00
36380;BME280;22411;53.016;18.632;2023-02-16T00:31:47;101511.19;;;-0.74;100.00
36380;BME280;22411;53.016;18.632;2023-02-16T00:34:33;101501.88;;;-0.76;100.00
36380;BME280;22411;53.016;18.632;2023-02-16T00:37:08;101501.88;;;-0.76;100.00
36380;BME280;22411;53.016;18.632;2023-02-16T00:39:35;101495.91;;;-0.74;100.00
36380;BME280;22411;53.016;18.632;2023-02-16T00:42:04;101506.09;;;-0.72;100.00
36380;BME280;22411;53.016;18.632;2023-02-16T00:44:36;101503.53;;;-0.74;100.00
36380;BME280;22411;53.016;18.632;2023-02-16T00:47:17;101490.81;;;-0.71;100.00
36380;BME280;22411;53.016;18.632;2023-02-16T00:49:45;101486.53;;;-0.66;100.00
36380;BME280;22411;53.016;18.632;2023-02-16T00:54:57;101496.66;;;-0.60;100.00
36380;BME280;22411;53.016;18.632;2023-02-16T00:57:25;101483.09;;;-0.60;100.00
36380;BME280;22411;53.016;18.632;2023-02-16T01:00:23;101476.31;;;-0.64;100.00
36380;BME280;22411;53.016;18.632;2023-02-16T01:02:48;101476.31;;;-0.64;100.00
36380;BME280;22411;53.016;18.632;2023-02-16T01:05:16;101477.16;;;-0.61;100.00
36380;BME280;22411;53.016;18.632;2023-02-16T01:07:42;101478.03;;;-0.62;100.00
36380;BME280;22411;53.016;18.632;2023-02-16T01:10:27;101465.28;;;-0.62;100.00
36380;BME280;22411;53.016;18.632;2023-02-16T01:13:13;101469.53;;;-0.64;100.00
36380;BME280;22411;53.016;18.632;2023-02-16T01:15:40;101460.22;;;-0.63;100.00
36380;BME280;22411;53.016;18.632;2023-02-16T01:18:07;101459.38;;;-0.65;100.00
36380;BME280;22411;53.016;18.632;2023-02-16T01:20:34;101450.88;;;-0.66;100.00
36380;BME280;22411;53.016;18.632;2023-02-16T01:23:01;101458.50;;;-0.63;100.00
36380;BME280;22411;53.016;18.632;2023-02-16T01:25:27;101448.31;;;-0.64;100.00
36380;BME280;22411;53.016;18.632;2023-02-16T01:27:53;101436.44;;;-0.62;100.00
36380;BME280;22411;53.016;18.632;2023-02-16T01:30:21;101436.44;;;-0.62;100.00
36380;BME280;22411;53.016;18.632;2023-02-16T01:32:48;101430.50;;;-0.63;100.00
36380;BME280;22411;53.016;18.632;2023-02-16T01:35:21;101421.22;;;-0.68;100.00
36380;BME280;22411;53.016;18.632;2023-02-16T01:37:48;101432.22;;;-0.63;100.00
36380;BME280;22411;53.016;18.632;2023-02-16T01:43:00;101416.09;;;-0.67;100.00
36380;BME280;22411;53.016;18.632;2023-02-16T01:45:32;101413.56;;;-0.67;100.00
36380;BME280;22411;53.016;18.632;2023-02-16T01:48:08;101422.88;;;-0.69;100.00
36380;BME280;22411;53.016;18.632;2023-02-16T01:50:54;101407.63;;;-0.67;100.00
36380;BME280;22411;53.016;18.632;2023-02-16T01:53:27;101413.53;;;-0.65;100.00
36380;BME280;22411;53.016;18.632;2023-02-16T01:56:00;101410.97;;;-0.64;100.00
36380;BME280;22411;53.016;18.632;2023-02-16T01:58:33;101414.38;;;-0.63;100.00
36380;BME280;22411;53.016;18.632;2023-02-16T02:03:33;101407.53;;;-0.60;100.00
36380;BME280;22411;53.016;18.632;2023-02-16T02:06:42;101400.75;;;-0.61;100.00
36380;BME280;22411;53.016;18.632;2023-02-16T02:09:12;101399.06;;;-0.60;100.00
36380;BME280;22411;53.016;18.632;2023-02-16T02:11:53;101398.28;;;-0.67;100.00
36380;BME280;22411;53.016;18.632;2023-02-16T02:14:26;101394.88;;;-0.66;100.00
36380;BME280;22411;53.016;18.632;2023-02-16T02:16:57;101388.13;;;-0.68;100.00
36380;BME280;22411;53.016;18.632;2023-02-16T02:19:24;101391.50;;;-0.69;100.00
36380;BME280;22411;53.016;18.632;2023-02-16T02:22:04;101384.72;;;-0.70;100.00
36380;BME280;22411;53.016;18.632;2023-02-16T02:25:32;101381.34;;;-0.72;100.00
36380;BME280;22411;53.016;18.632;2023-02-16T02:41:38;101372.03;;;-0.73;100.00
36380;BME280;22411;53.016;18.632;2023-02-16T02:44:28;101371.19;;;-0.75;100.00
36380;BME280;22411;53.016;18.632;2023-02-16T02:46:54;101368.66;;;-0.78;100.00
36380;BME280;22411;53.016;18.632;2023-02-16T02:49:21;101371.22;;;-0.82;100.00
36380;BME280;22411;53.016;18.632;2023-02-16T02:51:47;101364.47;;;-0.84;100.00
36380;BME280;22411;53.016;18.632;2023-02-16T02:54:23;101357.69;;;-0.84;100.00
36380;BME280;22411;53.016;18.632;2023-02-16T03:00:02;101348.31;;;-0.82;100.00
36380;BME280;22411;53.016;18.632;2023-02-16T03:02:49;101344.91;;;-0.77;100.00
36380;BME280;22411;53.016;18.632;2023-02-16T03:05:18;101336.38;;;-0.75;100.00
36380;BME280;22411;53.016;18.632;2023-02-16T03:07:46;101335.56;;;-0.77;100.00
36380;BME280;22411;53.016;18.632;2023-02-16T03:10:17;101327.94;;;-0.80;100.00
36380;BME280;22411;53.016;18.632;2023-02-16T03:13:05;101327.13;;;-0.84;100.00
36380;BME280;22411;53.016;18.632;2023-02-16T03:15:33;101322.91;;;-0.88;100.00
36380;BME280;22411;53.016;18.632;2023-02-16T03:18:03;101318.63;;;-0.81;100.00
36380;BME280;22411;53.016;18.632;2023-02-16T03:20:48;101317.84;;;-0.89;100.00
36380;BME280;22411;53.016;18.632;2023-02-16T03:23:34;101316.09;;;-0.86;100.00
36380;BME280;22411;53.016;18.632;2023-02-16T03:26:20;101320.41;;;-0.92;100.00
36380;BME280;22411;53.016;18.632;2023-02-16T03:29:06;101315.34;;;-0.94;100.00
36380;BME280;22411;53.016;18.632;2023-02-16T03:32:03;101320.38;;;-0.91;100.00
36380;BME280;22411;53.016;18.632;2023-02-16T03:34:29;101332.31;;;-0.96;100.00
36380;BME280;22411;53.016;18.632;2023-02-16T03:36:58;101331.47;;;-0.96;100.00
36380;BME280;22411;53.016;18.632;2023-02-16T03:39:26;101337.41;;;-0.94;100.00
36380;BME280;22411;53.016;18.632;2023-02-16T03:41:55;101325.47;;;-0.91;100.00
36380;BME280;22411;53.016;18.632;2023-02-16T03:44:21;101316.13;;;-0.87;100.00
36380;BME280;22411;53.016;18.632;2023-02-16T03:46:50;101317.03;;;-0.94;100.00
36380;BME280;22411;53.016;18.632;2023-02-16T03:49:17;101327.22;;;-0.96;100.00
36380;BME280;22411;53.016;18.632;2023-02-16T03:51:43;101331.44;;;-0.93;100.00
36380;BME280;22411;53.016;18.632;2023-02-16T03:54:10;101328.03;;;-0.91;100.00
36380;BME280;22411;53.016;18.632;2023-02-16T03:56:37;101321.25;;;-0.92;100.00
36380;BME280;22411;53.016;18.632;2023-02-16T03:59:03;101317.78;;;-0.85;100.00
36380;BME280;22411;53.016;18.632;2023-02-16T04:01:29;101311.91;;;-0.88;100.00
36380;BME280;22411;53.016;18.632;2023-02-16T04:03:55;101322.94;;;-0.92;100.00
36380;BME280;22411;53.016;18.632;2023-02-16T04:06:24;101311.94;;;-0.96;100.00
36380;BME280;22411;53.016;18.632;2023-02-16T04:08:49;101308.59;;;-1.02;100.00
36380;BME280;22411;53.016;18.632;2023-02-16T04:11:16;101313.72;;;-1.06;100.00
36380;BME280;22411;53.016;18.632;2023-02-16T04:14:00;101309.56;;;-1.16;100.00
36380;BME280;22411;53.016;18.632;2023-02-16T04:16:27;101312.94;;;-1.17;100.00
36380;BME280;22411;53.016;18.632;2023-02-16T04:18:53;101318.88;;;-1.15;100.00
36380;BME280;22411;53.016;18.632;2023-02-16T04:21:19;101321.41;;;-1.10;100.00
36380;BME280;22411;53.016;18.632;2023-02-16T04:23:45;101306.09;;;-1.07;100.00
36380;BME280;22411;53.016;18.632;2023-02-16T04:26:11;101321.38;;;-1.07;100.00
36380;BME280;22411;53.016;18.632;2023-02-16T04:28:40;101313.75;;;-1.09;100.00
36380;BME280;22411;53.016;18.632;2023-02-16T04:31:06;101314.63;;;-1.10;100.00
36380;BME280;22411;53.016;18.632;2023-02-16T04:33:32;101308.66;;;-1.09;100.00
36380;BME280;22411;53.016;18.632;2023-02-16T04:35:58;101302.69;;;-1.06;100.00
36380;BME280;22411;53.016;18.632;2023-02-16T04:38:24;101298.47;;;-1.07;100.00
36380;BME280;22411;53.016;18.632;2023-02-16T04:40:50;101312.88;;;-1.06;100.00
36380;BME280;22411;53.016;18.632;2023-02-16T04:43:16;101315.44;;;-1.08;100.00
36380;BME280;22411;53.016;18.632;2023-02-16T04:45:42;101318.88;;;-1.10;100.00
36380;BME280;22411;53.016;18.632;2023-02-16T04:48:08;101313.75;;;-1.12;100.00
36380;BME280;22411;53.016;18.632;2023-02-16T04:50:34;101311.25;;;-1.15;100.00
36380;BME280;22411;53.016;18.632;2023-02-16T04:53:00;101311.25;;;-1.15;100.00
36380;BME280;22411;53.016;18.632;2023-02-16T04:55:26;101318.88;;;-1.16;100.00
36380;BME280;22411;53.016;18.632;2023-02-16T04:57:52;101311.28;;;-1.19;100.00
36380;BME280;22411;53.016;18.632;2023-02-16T05:00:19;101311.28;;;-1.19;100.00
36380;BME280;22411;53.016;18.632;2023-02-16T05:02:45;101311.28;;;-1.19;100.00
36380;BME280;22411;53.016;18.632;2023-02-16T05:05:11;101305.34;;;-1.21;100.00
36380;BME280;22411;53.016;18.632;2023-02-16T05:07:37;101302.84;;;-1.24;100.00
36380;BME280;22411;53.016;18.632;2023-02-16T05:10:04;101298.59;;;-1.27;100.00
36380;BME280;22411;53.016;18.632;2023-02-16T05:12:30;101302.91;;;-1.34;100.00
36380;BME280;22411;53.016;18.632;2023-02-16T05:15:15;101303.75;;;-1.35;100.00
36380;BME280;22411;53.016;18.632;2023-02-16T05:17:41;101296.97;;;-1.37;100.00
36380;BME280;22411;53.016;18.632;2023-02-16T05:20:07;101289.38;;;-1.40;100.00
36380;BME280;22411;53.016;18.632;2023-02-16T05:22:33;101284.31;;;-1.45;100.00
36380;BME280;22411;53.016;18.632;2023-02-16T05:25:00;101282.66;;;-1.46;100.00
36380;BME280;22411;53.016;18.632;2023-02-16T05:27:28;101284.34;;;-1.48;100.00
36380;BME280;22411;53.016;18.632;2023-02-16T05:29:55;101285.22;;;-1.50;100.00
36380;BME280;22411;53.016;18.632;2023-02-16T05:32:22;101289.47;;;-1.51;100.00
36380;BME280;22411;53.016;18.632;2023-02-16T05:34:48;101277.59;;;-1.53;100.00
36380;BME280;22411;53.016;18.632;2023-02-16T05:37:16;101275.91;;;-1.54;100.00
36380;BME280;22411;53.016;18.632;2023-02-16T05:39:43;101277.59;;;-1.55;100.00
36380;BME280;22411;53.016;18.632;2023-02-16T05:42:09;101264.91;;;-1.56;100.00
36380;BME280;22411;53.016;18.632;2023-02-16T05:44:36;101268.31;;;-1.61;100.00
36380;BME280;22411;53.016;18.632;2023-02-16T05:47:02;101268.31;;;-1.64;100.00
36380;BME280;22411;53.016;18.632;2023-02-16T05:49:28;101277.69;;;-1.66;100.00
36380;BME280;22411;53.016;18.632;2023-02-16T05:51:54;101281.91;;;-1.66;100.00
36380;BME280;22411;53.016;18.632;2023-02-16T05:54:20;101274.31;;;-1.68;100.00
36380;BME280;22411;53.016;18.632;2023-02-16T05:56:48;101276.84;;;-1.71;100.00
36380;BME280;22411;53.016;18.632;2023-02-16T05:59:15;101276.88;;;-1.72;100.00
36380;BME280;22411;53.016;18.632;2023-02-16T06:01:41;101273.47;;;-1.74;100.00
36380;BME280;22411;53.016;18.632;2023-02-16T06:04:10;101270.94;;;-1.76;100.00
36380;BME280;22411;53.016;18.632;2023-02-16T06:06:37;101271.81;;;-1.78;100.00
36380;BME280;22411;53.016;18.632;2023-02-16T06:09:05;101262.50;;;-1.79;100.00
36380;BME280;22411;53.016;18.632;2023-02-16T06:11:31;101271.00;;;-1.79;100.00
36380;BME280;22411;53.016;18.632;2023-02-16T06:14:06;101265.91;;;-1.79;100.00
36380;BME280;22411;53.016;18.632;2023-02-16T06:16:33;101274.34;;;-1.80;100.00
36380;BME280;22411;53.016;18.632;2023-02-16T06:19:00;101272.66;;;-1.79;100.00
36380;BME280;22411;53.016;18.632;2023-02-16T06:21:27;101273.50;;;-1.77;100.00
36380;BME280;22411;53.016;18.632;2023-02-16T06:23:53;101259.91;;;-1.70;100.00
36380;BME280;22411;53.016;18.632;2023-02-16T06:26:20;101266.66;;;-1.65;100.00
36380;BME280;22411;53.016;18.632;2023-02-16T06:28:46;101268.34;;;-1.62;100.00
36380;BME280;22411;53.016;18.632;2023-02-16T06:31:12;101274.25;;;-1.57;100.00
36380;BME280;22411;53.016;18.632;2023-02-16T06:33:39;101273.34;;;-1.51;100.00
36380;BME280;22411;53.016;18.632;2023-02-16T06:36:05;101280.94;;;-1.45;100.00
36380;BME280;22411;53.016;18.632;2023-02-16T06:38:31;101280.06;;;-1.41;100.00
36380;BME280;22411;53.016;18.632;2023-02-16T06:40:58;101285.13;;;-1.40;100.00
36380;BME280;22411;53.016;18.632;2023-02-16T06:43:25;101282.56;;;-1.35;100.00
36380;BME280;22411;53.016;18.632;2023-02-16T06:45:51;101281.66;;;-1.28;100.00
36380;BME280;22411;53.016;18.632;2023-02-16T06:48:17;101281.63;;;-1.23;100.00
36380;BME280;22411;53.016;18.632;2023-02-16T06:50:43;101279.06;;;-1.20;100.00
36380;BME280;22411;53.016;18.632;2023-02-16T06:53:09;101271.38;;;-1.14;100.00
36380;BME280;22411;53.016;18.632;2023-02-16T06:55:35;101279.00;;;-1.10;100.00
36380;BME280;22411;53.016;18.632;2023-02-16T06:58:03;101275.56;;;-1.07;100.00
36380;BME280;22411;53.016;18.632;2023-02-16T07:00:29;101279.78;;;-1.03;100.00
36380;BME280;22411;53.016;18.632;2023-02-16T07:02:55;101279.75;;;-1.00;100.00
36380;BME280;22411;53.016;18.632;2023-02-16T07:05:21;101284.84;;;-0.98;100.00
36380;BME280;22411;53.016;18.632;2023-02-16T07:07:47;101278.81;;;-0.91;100.00
36380;BME280;22411;53.016;18.632;2023-02-16T07:10:13;101270.28;;;-0.86;100.00
36380;BME280;22411;53.016;18.632;2023-02-16T07:12:40;101273.63;;;-0.79;100.00
36380;BME280;22411;53.016;18.632;2023-02-16T07:15:06;101275.28;;;-0.73;100.00
36380;BME280;22411;53.016;18.632;2023-02-16T07:17:32;101271.84;;;-0.71;100.00
36380;BME280;22411;53.016;18.632;2023-02-16T07:19:58;101271.81;;;-0.69;100.00
36380;BME280;22411;53.016;18.632;2023-02-16T07:22:25;101269.25;;;-0.63;100.00
36380;BME280;22411;53.016;18.632;2023-02-16T07:24:50;101268.31;;;-0.59;100.00
36380;BME280;22411;53.016;18.632;2023-02-16T07:27:17;101269.09;;;-0.49;100.00
36380;BME280;22411;53.016;18.632;2023-02-16T07:29:42;101263.94;;;-0.45;100.00
36380;BME280;22411;53.016;18.632;2023-02-16T07:32:11;101258.78;;;-0.39;100.00
36380;BME280;22411;53.016;18.632;2023-02-16T07:34:37;101260.41;;;-0.32;100.00
36380;BME280;22411;53.016;18.632;2023-02-16T07:37:04;101254.38;;;-0.24;100.00
36380;BME280;22411;53.016;18.632;2023-02-16T07:39:30;101255.25;;;-0.25;100.00
36380;BME280;22411;53.016;18.632;2023-02-16T07:41:57;101262.00;;;-0.24;100.00
36380;BME280;22411;53.016;18.632;2023-02-16T07:44:23;101259.38;;;-0.15;100.00
36380;BME280;22411;53.016;18.632;2023-02-16T07:46:51;101260.06;;;-0.04;100.00
36380;BME280;22411;53.016;18.632;2023-02-16T07:49:17;101247.97;;;0.10;100.00
36380;BME280;22411;53.016;18.632;2023-02-16T07:51:43;101247.75;;;0.27;100.00
36380;BME280;22411;53.016;18.632;2023-02-16T07:54:09;101250.16;;;0.38;100.00
36380;BME280;22411;53.016;18.632;2023-02-16T07:56:36;101250.78;;;0.52;100.00
36380;BME280;22411;53.016;18.632;2023-02-16T07:59:02;101248.91;;;0.63;100.00
36380;BME280;22411;53.016;18.632;2023-02-16T08:01:30;101261.66;;;0.63;100.00
36380;BME280;22411;53.016;18.632;2023-02-16T08:03:56;101252.91;;;0.78;100.00
36380;BME280;22411;53.016;18.632;2023-02-16T08:06:23;101258.78;;;0.85;100.00
36380;BME280;22411;53.016;18.632;2023-02-16T08:08:49;101254.25;;;1.02;100.00
36380;BME280;22411;53.016;18.632;2023-02-16T08:11:24;101257.41;;;1.16;100.00
36380;BME280;22411;53.016;18.632;2023-02-16T08:13:51;101257.25;;;1.24;100.00
36380;BME280;22411;53.016;18.632;2023-02-16T08:16:21;101251.03;;;1.39;100.00
36380;BME280;22411;53.016;18.632;2023-02-16T08:18:47;101254.09;;;1.56;100.00
36380;BME280;22411;53.016;18.632;2023-02-16T08:21:20;101248.75;;;1.68;100.00
36380;BME280;22411;53.016;18.632;2023-02-16T08:23:58;101246.72;;;1.84;100.00
36380;BME280;22411;53.016;18.632;2023-02-16T08:26:28;101258.47;;;1.93;100.00
36380;BME280;22411;53.016;18.632;2023-02-16T08:28:56;101253.00;;;2.11;100.00
36380;BME280;22411;53.016;18.632;2023-02-16T08:31:26;101257.13;;;2.17;100.00
36380;BME280;22411;53.016;18.632;2023-02-16T08:33:57;101264.59;;;2.26;100.00
36380;BME280;22411;53.016;18.632;2023-02-16T08:36:36;101251.69;;;2.30;100.00
36380;BME280;22411;53.016;18.632;2023-02-16T08:39:12;101251.41;;;2.44;100.00
36380;BME280;22411;53.016;18.632;2023-02-16T08:41:40;101256.91;;;2.63;100.00
36380;BME280;22411;53.016;18.632;2023-02-16T08:44:07;101256.66;;;2.74;100.00
36380;BME280;22411;53.016;18.632;2023-02-16T08:46:35;101257.38;;;2.80;100.00
36380;BME280;22411;53.016;18.632;2023-02-16T08:49:04;101259.81;;;2.85;100.00
36380;BME280;22411;53.016;18.632;2023-02-16T08:51:33;101269.09;;;2.89;100.00
36380;BME280;22411;53.016;18.632;2023-02-16T08:54:00;101260.69;;;2.84;100.00
36380;BME280;22411;53.016;18.632;2023-02-16T08:56:27;101255.16;;;3.01;100.00
36380;BME280;22411;53.016;18.632;2023-02-16T08:58:55;101268.16;;;3.27;100.00
36380;BME280;22411;53.016;18.632;2023-02-16T09:01:21;101267.44;;;3.53;100.00
36380;BME280;22411;53.016;18.632;2023-02-16T09:03:48;101265.56;;;3.58;100.00
36380;BME280;22411;53.016;18.632;2023-02-16T09:06:18;101266.00;;;3.74;100.00
36380;BME280;22411;53.016;18.632;2023-02-16T09:08:50;101277.13;;;3.73;100.00
36380;BME280;22411;53.016;18.632;2023-02-16T09:11:18;101277.56;;;3.89;100.00
36380;BME280;22411;53.016;18.632;2023-02-16T09:13:44;101280.50;;;4.06;100.00
36380;BME280;22411;53.016;18.632;2023-02-16T09:16:14;101272.41;;;4.46;100.00
36380;BME280;22411;53.016;18.632;2023-02-16T09:18:41;101275.97;;;4.97;100.00
36380;BME280;22411;53.016;18.632;2023-02-16T09:21:16;101280.78;;;5.33;100.00
36380;BME280;22411;53.016;18.632;2023-02-16T09:23:44;101279.13;;;5.78;100.00
36380;BME280;22411;53.016;18.632;2023-02-16T09:26:18;101285.25;;;6.45;100.00
36380;BME280;22411;53.016;18.632;2023-02-16T09:28:45;101292.13;;;6.88;100.00
36380;BME280;22411;53.016;18.632;2023-02-16T09:31:17;101292.53;;;7.20;100.00
36380;BME280;22411;53.016;18.632;2023-02-16T09:33:55;101291.13;;;6.70;100.00
36380;BME280;22411;53.016;18.632;2023-02-16T09:36:22;101284.28;;;6.47;100.00
36380;BME280;22411;53.016;18.632;2023-02-16T09:38:48;101287.50;;;6.54;100.00
36380;BME280;22411;53.016;18.632;2023-02-16T09:41:41;101284.69;;;7.23;100.00
36380;BME280;22411;53.016;18.632;2023-02-16T09:46:36;101290.00;;;8.36;100.00
36380;BME280;22411;53.016;18.632;2023-02-16T09:49:04;101290.75;;;8.38;100.00
36380;BME280;22411;53.016;18.632;2023-02-16T09:51:35;101281.09;;;8.60;100.00
36380;BME280;22411;53.016;18.632;2023-02-16T09:54:13;101281.25;;;9.27;100.00
36380;BME280;22411;53.016;18.632;2023-02-16T09:56:58;101279.06;;;9.69;100.00
36380;BME280;22411;53.016;18.632;2023-02-16T10:02:12;101283.25;;;9.72;100.00
36380;BME280;22411;53.016;18.632;2023-02-16T10:04:54;101284.81;;;10.08;100.00
36380;BME280;22411;53.016;18.632;2023-02-16T10:10:00;101282.53;;;10.95;100.00
36380;BME280;22411;53.016;18.632;2023-02-16T10:12:32;101289.56;;;11.23;100.00
36380;BME280;22411;53.016;18.632;2023-02-16T10:15:08;101292.44;;;10.27;100.00
36380;BME280;22411;53.016;18.632;2023-02-16T10:17:55;101288.25;;;10.40;100.00
36380;BME280;22411;53.016;18.632;2023-02-16T10:20:29;101286.03;;;10.64;100.00
36380;BME280;22411;53.016;18.632;2023-02-16T10:28:41;101289.78;;;11.48;100.00
36380;BME280;22411;53.016;18.632;2023-02-16T10:39:02;101284.81;;;13.49;97.23
36380;BME280;22411;53.016;18.632;2023-02-16T10:41:39;101280.03;;;14.05;87.46
36380;BME280;22411;53.016;18.632;2023-02-16T10:44:36;101280.44;;;13.37;91.49
36380;BME280;22411;53.016;18.632;2023-02-16T10:47:03;101279.66;;;12.69;98.98
36380;BME280;22411;53.016;18.632;2023-02-16T10:49:31;101275.22;;;12.44;100.00
36380;BME280;22411;53.016;18.632;2023-02-16T10:52:01;101270.81;;;12.18;100.00
36380;BME280;22411;53.016;18.632;2023-02-16T10:54:30;101273.38;;;11.76;100.00
36380;BME280;22411;53.016;18.632;2023-02-16T10:57:02;101262.16;;;10.89;100.00
36380;BME280;22411;53.016;18.632;2023-02-16T10:59:37;101267.44;;;11.32;100.00
36380;BME280;22411;53.016;18.632;2023-02-16T11:02:34;101260.84;;;11.69;100.00
36380;BME280;22411;53.016;18.632;2023-02-16T11:07:58;101246.97;;;12.65;100.00
36380;BME280;22411;53.016;18.632;2023-02-16T11:10:38;101242.00;;;14.26;91.12
36380;BME280;22411;53.016;18.632;2023-02-16T11:13:06;101267.16;;;15.22;79.39
36380;BME280;22411;53.016;18.632;2023-02-16T11:15:35;101255.44;;;14.09;84.70
36380;BME280;22411;53.016;18.632;2023-02-16T11:20:56;101250.84;;;11.20;100.00
36380;BME280;22411;53.016;18.632;2023-02-16T11:23:27;101240.38;;;10.31;100.00
36380;BME280;22411;53.016;18.632;2023-02-16T11:28:41;101246.59;;;11.47;100.00
36380;BME280;22411;53.016;18.632;2023-02-16T11:33:34;101240.88;;;12.12;100.00
36380;BME280;22411;53.016;18.632;2023-02-16T11:38:57;101251.97;;;13.59;90.90
36380;BME280;22411;53.016;18.632;2023-02-16T11:41:25;101243.13;;;13.62;90.63
36380;BME280;22411;53.016;18.632;2023-02-16T11:43:52;101240.38;;;13.89;87.57
36380;BME280;22411;53.016;18.632;2023-02-16T11:46:20;101242.69;;;15.11;79.26
36380;BME280;22411;53.016;18.632;2023-02-16T11:48:47;101245.34;;;15.90;70.29
36380;BME280;22411;53.016;18.632;2023-02-16T11:51:15;101246.28;;;15.89;70.57
36380;BME280;22411;53.016;18.632;2023-02-16T11:54:00;101240.78;;;16.79;65.53
36380;BME280;22411;53.016;18.632;2023-02-16T11:56:30;101238.81;;;16.60;65.50
36380;BME280;22411;53.016;18.632;2023-02-16T11:59:12;101242.03;;;17.57;59.56
36380;BME280;22411;53.016;18.632;2023-02-16T12:13:38;101226.47;;;15.41;71.44
36380;BME280;22411;53.016;18.632;2023-02-16T12:16:37;101221.25;;;14.73;75.92
36380;BME280;22411;53.016;18.632;2023-02-16T12:22:14;101224.88;;;17.43;60.00
36380;BME280;22411;53.016;18.632;2023-02-16T12:25:21;101218.28;;;17.89;56.65
36380;BME280;22411;53.016;18.632;2023-02-16T12:33:29;101208.41;;;16.27;66.28
36380;BME280;22411;53.016;18.632;2023-02-16T12:44:15;101207.53;;;20.08;47.06
36380;BME280;22411;53.016;18.632;2023-02-16T12:46:45;101190.63;;;19.11;50.00
36380;BME280;22411;53.016;18.632;2023-02-16T12:49:32;101191.38;;;19.30;49.46
36380;BME280;22411;53.016;18.632;2023-02-16T12:52:10;101188.09;;;16.51;64.24
36380;BME280;22411;53.016;18.632;2023-02-16T12:54:50;101174.78;;;17.36;61.34
36380;BME280;22411;53.016;18.632;2023-02-16T12:57:25;101176.41;;;17.28;62.00
36380;BME280;22411;53.016;18.632;2023-02-16T13:00:03;101174.81;;;17.96;57.36
36380;BME280;22411;53.016;18.632;2023-02-16T13:02:50;101166.78;;;16.77;64.99
36380;BME280;22411;53.016;18.632;2023-02-16T13:05:22;101170.31;;;16.55;66.77
36380;BME280;22411;53.016;18.632;2023-02-16T13:08:44;101171.81;;;15.83;70.09
36380;BME280;22411;53.016;18.632;2023-02-16T13:11:17;101167.94;;;15.66;72.37
36380;BME280;22411;53.016;18.632;2023-02-16T13:13:46;101162.00;;;15.31;74.12
36380;BME280;22411;53.016;18.632;2023-02-16T13:17:03;101157.38;;;16.00;69.04
36380;BME280;22411;53.016;18.632;2023-02-16T13:19:14;101165.56;;;15.41;70.54
36380;BME280;22411;53.016;18.632;2023-02-16T13:22:01;101158.75;;;14.71;78.20
36380;BME280;22411;53.016;18.632;2023-02-16T13:27:55;101150.72;;;13.54;89.40
36380;BME280;22411;53.016;18.632;2023-02-16T13:44:22;101135.00;;;11.05;100.00
36380;BME280;22411;53.016;18.632;2023-02-16T13:46:50;101138.88;;;11.12;100.00
36380;BME280;22411;53.016;18.632;2023-02-16T13:49:36;101139.81;;;11.25;100.00
36380;BME280;22411;53.016;18.632;2023-02-16T13:52:09;101146.22;;;11.05;100.00
36380;BME280;22411;53.016;18.632;2023-02-16T13:54:40;101139.69;;;10.55;100.00
36380;BME280;22411;53.016;18.632;2023-02-16T13:57:12;101128.38;;;10.10;100.00
36380;BME280;22411;53.016;18.632;2023-02-16T14:02:11;101121.88;;;10.03;100.00
36380;BME280;22411;53.016;18.632;2023-02-16T14:12:18;101123.81;;;10.45;100.00
36380;BME280;22411;53.016;18.632;2023-02-16T14:14:55;101120.53;;;10.72;100.00
36380;BME280;22411;53.016;18.632;2023-02-16T14:17:27;101126.94;;;10.95;100.00
36380;BME280;22411;53.016;18.632;2023-02-16T14:36:06;101139.22;;;9.71;100.00
36380;BME280;22411;53.016;18.632;2023-02-16T14:41:12;101131.19;;;9.76;100.00
36380;BME280;22411;53.016;18.632;2023-02-16T14:49:56;101134.50;;;9.30;100.00
36380;BME280;22411;53.016;18.632;2023-02-16T15:01:10;101129.13;;;8.32;100.00
36380;BME280;22411;53.016;18.632;2023-02-16T15:03:44;101117.22;;;8.12;100.00
36380;BME280;22411;53.016;18.632;2023-02-16T15:06:41;101120.06;;;8.06;100.00
36380;BME280;22411;53.016;18.632;2023-02-16T15:09:21;101113.31;;;8.04;100.00
36380;BME280;22411;53.016;18.632;2023-02-16T15:11:52;101116.41;;;7.93;100.00
36380;BME280;22411;53.016;18.632;2023-02-16T15:14:47;101111.84;;;7.81;100.00
36380;BME280;22411;53.016;18.632;2023-02-16T15:17:35;101108.03;;;7.71;100.00
36380;BME280;22411;53.016;18.632;2023-02-16T15:20:34;101107.84;;;7.74;100.00
36380;BME280;22411;53.016;18.632;2023-02-16T15:23:03;101101.63;;;7.60;100.00
36380;BME280;22411;53.016;18.632;2023-02-16T15:25:33;101103.63;;;7.54;100.00
36380;BME280;22411;53.016;18.632;2023-02-16T15:28:14;101098.00;;;7.46;100.00